Time;durP1;ratioP1;P1;durP2;ratioP2;P2;SDS_P1;SDS_P2;PMS_P1;PMS_P2;Temp;Humidity;BMP_temperature;BMP_pressure;BME280_temperature;BME280_humidity;BME280_pressure;Samples;Min_cycle;Max_cycle;Signal;HPM_P1;HPM_P2
2023/01/18 00:43:37;;;;;;;104.50;46.20;;;;;;;6.33;100.00;98942.55;104850;1296;601259;-88
2023/01/18 00:44:23;;;;;;;97.70;45.20;;;;;;;8.48;100.00;98934.06;107200;1270;62299;-89
2023/01/18 00:46:50;;;;;;;75.50;38.10;;;;;;;8.85;100.00;98935.42;107318;1267;62657;-89
2023/01/18 00:49:17;;;;;;;77.20;37.90;;;;;;;8.83;100.00;98934.85;107251;1267;74258;-90
2023/01/18 00:51:43;;;;;;;79.00;37.50;;;;;;;8.68;100.00;98936.96;107332;1267;73105;-88
2023/01/18 00:54:10;;;;;;;77.10;38.20;;;;;;;8.80;100.00;98937.98;107059;1272;137574;-90
2023/01/18 00:56:37;;;;;;;70.30;35.20;;;;;;;8.89;100.00;98932.46;107404;1270;60175;-90
2023/01/18 00:59:04;;;;;;;67.90;34.60;;;;;;;9.08;100.00;98927.47;107851;1266;61455;-89
2023/01/18 01:01:31;;;;;;;65.00;32.60;;;;;;;9.05;100.00;98921.66;108147;1265;73394;-88
2023/01/18 01:06:44;;;;;;;60.50;30.40;;;;;;;9.21;100.00;98922.98;107296;1267;74226;-91
2023/01/18 01:09:30;;;;;;;66.90;34.40;;;;;;;9.07;100.00;98930.71;107350;1266;61831;-87
2023/01/18 01:26:12;;;;;;;64.80;30.90;;;;;;;9.54;100.00;98922.17;108369;1253;61466;-90
2023/01/18 01:28:41;;;;;;;61.20;27.60;;;;;;;9.44;100.00;98916.71;107881;1254;73794;-91
2023/01/18 01:31:12;;;;;;;53.00;25.90;;;;;;;9.45;100.00;98914.23;108167;1253;71209;-89
2023/01/18 01:33:39;;;;;;;58.20;28.40;;;;;;;9.58;100.00;98911.61;108139;1254;74819;-91
2023/01/18 01:36:11;;;;;;;61.10;27.50;;;;;;;9.56;100.00;98907.70;108219;1254;59815;-90
2023/01/18 01:38:40;;;;;;;52.00;26.60;;;;;;;9.48;100.00;98913.39;108144;1253;59608;-91
2023/01/18 01:41:12;;;;;;;54.80;28.10;;;;;;;9.45;100.00;98911.95;108064;1254;75000;-92
2023/01/18 01:43:50;;;;;;;59.20;28.20;;;;;;;9.56;100.00;98914.19;108151;1253;70919;-90
2023/01/18 01:46:33;;;;;;;54.00;25.80;;;;;;;9.67;100.00;98909.41;108027;1254;74124;-88
2023/01/18 01:49:06;;;;;;;57.30;26.50;;;;;;;9.64;100.00;98906.27;108126;1253;60829;-91
2023/01/18 01:51:34;;;;;;;61.80;26.70;;;;;;;9.59;100.00;98904.56;107980;1253;61208;-91
2023/01/18 01:54:02;;;;;;;51.30;25.80;;;;;;;9.50;100.00;98900.15;108142;1253;73084;-89
2023/01/18 01:56:29;;;;;;;57.90;27.20;;;;;;;9.56;100.00;98893.50;108092;1253;71125;-93
2023/01/18 01:58:57;;;;;;;49.00;25.60;;;;;;;9.68;100.00;98892.67;107882;1253;73349;-90
2023/01/18 02:01:25;;;;;;;58.00;26.80;;;;;;;9.73;100.00;98885.59;108107;1254;62781;-91
2023/01/18 02:03:52;;;;;;;51.10;26.70;;;;;;;9.84;100.00;98874.27;108096;1254;60278;-86
2023/01/18 02:06:30;;;;;;;51.60;24.40;;;;;;;9.88;100.00;98875.48;108182;1257;72914;-90
2023/01/18 02:09:02;;;;;;;51.50;26.60;;;;;;;9.83;100.00;98870.50;108127;1254;70036;-89
2023/01/18 02:11:30;;;;;;;51.90;23.80;;;;;;;9.72;100.00;98874.79;108117;1254;71478;-88
2023/01/18 02:14:00;;;;;;;50.80;24.00;;;;;;;9.76;100.00;98875.46;108026;1253;62109;-90
2023/01/18 02:17:22;;;;;;;53.80;24.60;;;;;;;9.73;100.00;98875.95;108122;1254;61161;-92
2023/01/18 02:19:58;;;;;;;49.30;24.40;;;;;;;9.71;100.00;98874.83;107711;1253;71500;-91
2023/01/18 02:22:47;;;;;;;50.90;24.40;;;;;;;9.57;100.00;98874.03;108111;1253;70899;-91
2023/01/18 02:25:32;;;;;;;49.40;22.60;;;;;;;9.58;100.00;98876.05;108151;1253;73757;-91
2023/01/18 02:28:11;;;;;;;49.00;23.60;;;;;;;9.66;100.00;98866.71;108223;1253;64041;-88
2023/01/18 02:30:59;;;;;;;48.30;22.80;;;;;;;9.72;100.00;98866.86;108094;1254;61758;-89
2023/01/18 02:34:13;;;;;;;50.40;24.20;;;;;;;9.73;100.00;98870.17;108096;1253;73904;-91
2023/01/18 02:37:04;;;;;;;47.10;22.00;;;;;;;9.82;100.00;98862.52;108061;1253;70448;-91
2023/01/18 02:39:56;;;;;;;47.20;22.70;;;;;;;9.85;100.00;98853.90;108167;1254;72910;-92
2023/01/18 02:48:14;;;;;;;60.10;25.30;;;;;;;10.12;100.00;98857.20;108047;1253;73847;-91
2023/01/18 02:50:41;;;;;;;49.10;21.70;;;;;;;10.15;100.00;98847.02;108160;1253;69349;-90
2023/01/18 02:53:11;;;;;;;46.30;22.70;;;;;;;10.06;100.00;98849.45;108705;1254;75114;-90
2023/01/18 02:55:43;;;;;;;51.10;23.30;;;;;;;10.08;100.00;98844.42;108635;1253;62810;-91
2023/01/18 02:58:18;;;;;;;47.10;22.20;;;;;;;10.10;100.00;98846.21;108726;1253;61385;-90
2023/01/18 03:00:47;;;;;;;46.10;21.90;;;;;;;10.21;100.00;98844.37;109150;1253;73881;-92
2023/01/18 03:03:14;;;;;;;44.60;22.90;;;;;;;10.35;100.00;98847.14;109191;1253;71285;-90
2023/01/18 03:05:41;;;;;;;50.90;21.60;;;;;;;10.47;100.00;98846.68;109155;1253;72239;-91
2023/01/18 03:08:30;;;;;;;51.60;23.40;;;;;;;10.45;100.00;98847.48;108200;1253;62906;-90
2023/01/18 03:11:02;;;;;;;45.30;22.00;;;;;;;10.42;100.00;98837.80;108241;1255;61350;-90
2023/01/18 03:13:54;;;;;;;50.50;24.00;;;;;;;10.37;100.00;98831.09;108325;1253;75185;-92
2023/01/18 03:16:24;;;;;;;48.00;23.40;;;;;;;10.25;100.00;98829.30;108659;1253;69718;-90
2023/01/18 03:19:00;;;;;;;52.60;23.50;;;;;;;10.23;100.00;98821.30;108121;1253;74939;-91
2023/01/18 03:21:44;;;;;;;53.50;24.00;;;;;;;10.35;100.00;98810.81;108045;1253;61987;-91
2023/01/18 03:24:11;;;;;;;49.50;22.50;;;;;;;10.53;100.00;98823.65;108282;1253;60981;-91
2023/01/18 03:26:40;;;;;;;51.30;25.70;;;;;;;10.48;100.00;98823.09;108156;1253;74000;-90
2023/01/18 03:35:09;;;;;;;49.50;25.10;;;;;;;10.35;100.00;98829.44;108264;1254;63099;-91
2023/01/18 03:37:39;;;;;;;41.10;20.20;;;;;;;10.33;100.00;98830.95;108265;1253;62275;-89
2023/01/18 03:40:12;;;;;;;53.20;24.70;;;;;;;10.43;100.00;98834.46;108263;1253;73989;-88
2023/01/18 03:42:47;;;;;;;53.00;24.90;;;;;;;10.61;100.00;98839.17;108393;1253;71321;-89
2023/01/18 03:45:31;;;;;;;48.00;22.70;;;;;;;10.59;100.00;98839.63;108160;1253;74886;-91
2023/01/18 03:48:01;;;;;;;48.40;24.30;;;;;;;10.47;100.00;98842.27;108753;1253;63059;-90
2023/01/18 03:50:39;;;;;;;56.40;25.20;;;;;;;10.35;100.00;98837.17;108943;1254;61373;-88
2023/01/18 03:53:11;;;;;;;45.00;21.70;;;;;;;10.46;100.00;98842.84;108775;1253;73913;-89
2023/01/18 03:55:49;;;;;;;56.60;25.60;;;;;;;10.49;100.00;98843.75;108520;1254;71610;-88
2023/01/18 03:58:18;;;;;;;47.30;22.60;;;;;;;10.40;100.00;98844.58;108325;1254;73812;-89
2023/01/18 04:00:45;;;;;;;52.50;25.70;;;;;;;10.37;100.00;98839.65;108152;1254;62546;-90
2023/01/18 04:03:12;;;;;;;54.80;26.10;;;;;;;10.36;100.00;98837.47;108229;1254;60994;-91
2023/01/18 04:05:39;;;;;;;52.20;24.30;;;;;;;10.32;100.00;98832.27;108151;1254;75043;-91
2023/01/18 04:08:06;;;;;;;63.70;25.50;;;;;;;10.26;100.00;98832.89;108226;1253;72633;-92
2023/01/18 04:10:33;;;;;;;47.90;22.60;;;;;;;10.26;100.00;98832.87;108291;1253;73569;-92
2023/01/18 04:13:00;;;;;;;53.60;24.80;;;;;;;10.34;100.00;98838.25;108277;1254;62105;-90
2023/01/18 04:15:27;;;;;;;59.60;26.00;;;;;;;10.46;100.00;98837.43;108204;1253;61179;-89
2023/01/18 04:17:54;;;;;;;52.80;23.50;;;;;;;10.49;100.00;98836.39;108281;1254;72497;-89
2023/01/18 04:20:25;;;;;;;62.90;26.50;;;;;;;10.41;100.00;98839.79;108324;1258;72474;-91
2023/01/18 04:22:52;;;;;;;58.50;26.10;;;;;;;10.32;100.00;98836.61;108272;1254;73767;-91
2023/01/18 04:25:19;;;;;;;64.70;28.40;;;;;;;10.37;100.00;98833.02;108363;1253;62063;-91
2023/01/18 04:27:46;;;;;;;68.40;29.20;;;;;;;10.29;100.00;98835.17;108251;1253;62474;-92
2023/01/18 04:30:13;;;;;;;56.50;26.30;;;;;;;10.30;100.00;98840.60;108211;1254;75309;-91
2023/01/18 04:32:41;;;;;;;55.70;26.20;;;;;;;10.45;100.00;98836.77;108211;1254;70998;-92
2023/01/18 04:35:08;;;;;;;51.10;23.30;;;;;;;10.66;100.00;98838.17;108253;1254;73531;-91
2023/01/18 04:37:36;;;;;;;65.90;25.80;;;;;;;10.52;100.00;98841.60;108219;1254;63617;-91
2023/01/18 04:40:05;;;;;;;60.90;26.10;;;;;;;10.36;100.00;98834.80;108413;1254;60923;-90
2023/01/18 04:42:32;;;;;;;63.10;24.80;;;;;;;10.33;100.00;98841.64;108670;1253;74071;-89
2023/01/18 04:44:59;;;;;;;60.30;26.30;;;;;;;10.43;100.00;98840.06;108547;1254;71208;-90
2023/01/18 04:47:27;;;;;;;65.40;26.50;;;;;;;10.48;100.00;98841.49;108569;1253;74863;-88
2023/01/18 04:49:57;;;;;;;60.70;27.00;;;;;;;10.63;100.00;98839.92;108262;1254;64512;-90
2023/01/18 04:52:25;;;;;;;70.10;30.20;;;;;;;10.70;100.00;98849.00;108488;1253;61293;-91
2023/01/18 04:54:52;;;;;;;52.50;24.10;;;;;;;10.71;100.00;98847.56;108232;1253;71669;-92
2023/01/18 04:57:20;;;;;;;55.00;25.20;;;;;;;10.69;100.00;98837.14;108232;1254;72339;-90
2023/01/18 04:59:48;;;;;;;63.60;26.80;;;;;;;10.68;100.00;98828.41;108201;1254;73436;-91
2023/01/18 05:02:16;;;;;;;64.10;26.00;;;;;;;10.66;100.00;98828.02;108154;1256;63116;-93
2023/01/18 05:04:46;;;;;;;66.20;28.40;;;;;;;10.73;100.00;98827.23;108335;1253;61999;-92
2023/01/18 05:07:13;;;;;;;62.60;26.70;;;;;;;10.66;100.00;98836.09;108365;1254;73698;-90
2023/01/18 05:09:41;;;;;;;49.30;23.80;;;;;;;10.61;100.00;98836.52;108415;1254;71620;-91
2023/01/18 05:12:08;;;;;;;55.50;25.90;;;;;;;10.82;100.00;98833.04;108357;1253;74969;-92
2023/01/18 05:14:40;;;;;;;60.90;26.90;;;;;;;10.69;100.00;98828.00;108558;1254;62922;-90
2023/01/18 05:17:08;;;;;;;55.40;25.10;;;;;;;10.71;100.00;98820.20;108361;1254;60527;-90
2023/01/18 05:19:39;;;;;;;57.70;26.70;;;;;;;10.77;100.00;98816.66;108287;1253;73820;-91
2023/01/18 05:22:06;;;;;;;56.80;24.20;;;;;;;10.77;100.00;98815.96;109256;1254;71373;-90
2023/01/18 05:24:35;;;;;;;69.10;28.90;;;;;;;10.64;100.00;98808.66;109180;1253;73659;-91
2023/01/18 05:27:02;;;;;;;58.20;25.60;;;;;;;10.62;100.00;98809.64;109058;1253;60565;-91
2023/01/18 05:29:29;;;;;;;76.10;29.30;;;;;;;10.87;100.00;98800.29;109169;1254;61083;-91
2023/01/18 05:31:56;;;;;;;72.10;29.50;;;;;;;10.88;100.00;98806.39;108936;1252;76447;-92
2023/01/18 05:34:24;;;;;;;62.20;27.90;;;;;;;10.89;100.00;98809.15;109092;1254;69080;-91
2023/01/18 05:36:50;;;;;;;76.60;30.30;;;;;;;10.89;100.00;98811.02;108414;1254;73994;-90
2023/01/18 05:39:17;;;;;;;66.80;28.00;;;;;;;11.03;100.00;98811.95;108301;1254;62846;-92
2023/01/18 05:41:44;;;;;;;66.80;26.50;;;;;;;11.08;100.00;98813.44;108534;1253;59572;-91
2023/01/18 05:44:11;;;;;;;72.90;30.40;;;;;;;10.86;100.00;98803.31;108496;1253;75527;-91
2023/01/18 05:46:38;;;;;;;72.90;28.30;;;;;;;10.73;100.00;98803.05;108367;1257;72660;-90
2023/01/18 10:01:20;;;;;;;55.60;27.20;;;;;;;11.72;100.00;98634.29;105738;1281;613605;-63
2023/01/18 10:03:58;;;;;;;58.90;26.70;;;;;;;12.89;100.00;98635.27;107179;1266;129991;-66
2023/01/18 10:06:52;;;;;;;59.70;26.80;;;;;;;13.10;100.00;98634.48;108121;1254;60769;-65
2023/01/18 10:09:38;;;;;;;56.60;27.10;;;;;;;13.57;100.00;98632.36;108042;1254;71964;-64
2023/01/18 10:12:28;;;;;;;57.70;25.00;;;;;;;13.01;100.00;98627.92;108112;1254;70488;-64
2023/01/18 10:15:03;;;;;;;56.90;26.40;;;;;;;13.14;100.00;98625.25;108188;1254;74753;-63
2023/01/18 10:17:39;;;;;;;53.30;25.20;;;;;;;13.06;100.00;98623.54;108075;1253;61923;-61
2023/01/18 10:20:18;;;;;;;59.80;24.80;;;;;;;13.08;100.00;98623.05;108229;1253;62707;-62
2023/01/18 10:22:51;;;;;;;59.40;23.40;;;;;;;13.00;100.00;98618.85;108178;1254;72707;-63
2023/01/18 10:25:36;;;;;;;56.20;24.30;;;;;;;12.81;100.00;98616.67;108065;1254;72679;-63
2023/01/18 10:28:27;;;;;;;50.40;22.50;;;;;;;13.05;100.00;98620.41;108178;1254;71473;-63
2023/01/18 10:31:22;;;;;;;43.60;20.80;;;;;;;13.02;100.00;98623.44;108066;1253;63890;-61
2023/01/18 10:33:52;;;;;;;45.90;22.80;;;;;;;12.94;100.00;98624.88;108164;1254;61415;-63
2023/01/18 10:36:40;;;;;;;52.30;22.80;;;;;;;12.93;100.00;98619.36;108156;1254;75001;-62
2023/01/18 10:39:24;;;;;;;57.90;22.70;;;;;;;12.70;100.00;98615.15;108070;1254;72305;-65
2023/01/18 10:41:50;;;;;;;39.50;21.00;;;;;;;12.55;100.00;98608.60;108142;1254;74608;-63
2023/01/18 10:44:17;;;;;;;44.40;19.20;;;;;;;12.81;100.00;98610.65;108025;1254;63895;-64
2023/01/18 10:46:44;;;;;;;56.60;22.80;;;;;;;12.88;100.00;98612.95;108125;1254;60107;-63
2023/01/18 10:49:32;;;;;;;47.30;21.20;;;;;;;12.71;100.00;98613.10;108077;1254;74018;-63
2023/01/18 10:52:28;;;;;;;44.90;20.30;;;;;;;12.75;100.00;98604.38;108060;1254;71646;-63
2023/01/18 10:55:05;;;;;;;45.40;19.20;;;;;;;12.86;100.00;98602.55;107987;1256;73432;-67
2023/01/18 10:57:49;;;;;;;44.20;20.50;;;;;;;12.72;100.00;98597.17;107990;1254;63882;-63
2023/01/18 11:00:29;;;;;;;37.80;17.80;;;;;;;12.85;100.00;98589.99;107980;1257;60560;-64
2023/01/18 11:02:57;;;;;;;44.80;18.40;;;;;;;12.80;100.00;98592.42;107976;1254;71487;-62
2023/01/18 11:05:32;;;;;;;39.10;16.60;;;;;;;12.77;100.00;98583.30;107894;1254;72493;-62
2023/01/18 11:08:20;;;;;;;45.90;18.20;;;;;;;12.83;100.00;98586.04;108051;1254;74627;-61
2023/01/18 11:10:57;;;;;;;41.20;18.30;;;;;;;12.75;100.00;98582.21;108103;1254;63505;-65
2023/01/18 11:13:31;;;;;;;53.80;20.00;;;;;;;12.72;100.00;98579.93;108123;1256;59704;-65
2023/01/18 11:16:13;;;;;;;39.80;17.50;;;;;;;13.11;100.00;98582.61;107994;1255;74362;-65
2023/01/18 11:19:01;;;;;;;41.50;16.90;;;;;;;13.30;100.00;98589.05;108037;1254;70169;-64
2023/01/18 11:21:39;;;;;;;43.70;18.20;;;;;;;13.38;100.00;98583.68;107967;1257;73231;-65
2023/01/18 11:24:13;;;;;;;38.30;17.00;;;;;;;13.46;100.00;98578.00;107925;1254;64234;-65
2023/01/18 11:27:04;;;;;;;34.20;17.20;;;;;;;13.24;100.00;98583.63;108122;1254;61110;-64
2023/01/18 11:29:33;;;;;;;43.00;17.60;;;;;;;13.23;100.00;98582.84;108085;1254;72872;-64
2023/01/18 11:32:05;;;;;;;50.70;17.70;;;;;;;12.97;100.00;98586.84;107940;1254;71396;-64
2023/01/18 11:34:37;;;;;;;33.80;16.50;;;;;;;13.03;100.00;98582.83;107966;1254;73400;-65
2023/01/18 11:37:04;;;;;;;40.40;16.80;;;;;;;13.39;100.00;98581.86;107947;1256;64054;-65
2023/01/18 11:39:33;;;;;;;37.10;15.40;;;;;;;13.43;100.00;98576.14;107788;1256;62732;-63
2023/01/18 11:42:26;;;;;;;42.30;15.60;;;;;;;13.39;100.00;98577.84;108078;1254;74240;-63
2023/01/18 11:44:59;;;;;;;32.90;16.40;;;;;;;13.23;100.00;98580.19;108027;1254;71789;-63
2023/01/18 11:47:31;;;;;;;44.00;16.70;;;;;;;13.96;100.00;98577.29;107853;1256;72795;-65
2023/01/18 11:50:04;;;;;;;41.20;15.90;;;;;;;14.18;100.00;98581.13;107972;1257;62779;-64
2023/01/18 11:52:59;;;;;;;39.50;16.50;;;;;;;13.81;100.00;98577.16;107956;1256;61514;-65
2023/01/18 11:55:29;;;;;;;40.70;14.80;;;;;;;13.70;100.00;98581.38;108078;1256;73035;-63
2023/01/18 11:57:57;;;;;;;39.30;15.20;;;;;;;14.45;100.00;98575.46;108025;1254;72301;-65
2023/01/18 12:00:27;;;;;;;35.00;14.10;;;;;;;14.33;100.00;98575.71;108021;1257;74904;-65
2023/01/18 12:03:10;;;;;;;32.10;13.80;;;;;;;13.62;100.00;98583.57;107820;1256;63882;-64
2023/01/18 12:05:52;;;;;;;36.70;15.10;;;;;;;13.87;100.00;98579.38;108134;1254;62371;-64
2023/01/18 12:08:23;;;;;;;31.30;13.30;;;;;;;13.95;100.00;98579.14;108087;1254;74507;-64
2023/01/18 12:10:52;;;;;;;33.30;13.50;;;;;;;14.11;100.00;98583.02;108083;1257;70807;-64
2023/01/18 12:13:36;;;;;;;38.60;14.80;;;;;;;14.41;100.00;98571.55;107951;1257;73142;-64
2023/01/18 12:16:07;;;;;;;36.30;13.30;;;;;;;14.12;100.00;98575.92;108052;1256;63323;-63
2023/01/18 12:18:56;;;;;;;34.20;13.20;;;;;;;14.03;100.00;98576.39;108058;1256;62375;-64
2023/01/18 12:21:29;;;;;;;29.00;13.10;;;;;;;14.26;100.00;98572.55;107982;1256;74014;-64
2023/01/18 12:24:15;;;;;;;28.50;13.50;;;;;;;14.20;100.00;98572.63;108006;1254;72340;-64
2023/01/18 12:26:45;;;;;;;30.30;12.70;;;;;;;14.43;100.00;98574.58;108051;1258;74412;-64
2023/01/18 12:29:23;;;;;;;31.30;11.40;;;;;;;14.11;100.00;98572.95;108040;1254;63795;-64
2023/01/18 12:31:56;;;;;;;29.80;13.20;;;;;;;14.23;100.00;98577.90;108100;1255;62557;-64
2023/01/18 12:34:35;;;;;;;35.10;14.20;;;;;;;14.47;100.00;98579.41;107984;1257;75363;-64
2023/01/18 12:37:16;;;;;;;36.10;14.60;;;;;;;14.67;100.00;98578.07;108084;1256;72206;-63
2023/01/18 12:40:14;;;;;;;29.60;13.40;;;;;;;14.91;100.00;98580.55;108078;1258;75341;-65
2023/01/18 12:42:49;;;;;;;30.50;13.60;;;;;;;14.89;100.00;98584.98;107970;1257;63073;-65
2023/01/18 12:45:21;;;;;;;35.60;14.60;;;;;;;14.66;100.00;98582.69;108139;1254;62363;-64
2023/01/18 12:48:15;;;;;;;33.40;13.50;;;;;;;14.64;100.00;98578.66;108007;1254;74874;-64
2023/01/18 12:50:43;;;;;;;29.70;13.30;;;;;;;14.56;100.00;98577.67;107957;1256;71379;-64
2023/01/18 12:53:37;;;;;;;38.40;16.50;;;;;;;14.75;100.00;98580.77;107867;1257;72476;-65
2023/01/18 12:56:14;;;;;;;33.20;14.80;;;;;;;14.50;100.00;98581.64;107982;1254;63815;-64
2023/01/18 12:58:42;;;;;;;37.20;14.00;;;;;;;14.73;100.00;98573.83;107903;1255;61205;-65
2023/01/18 13:01:13;;;;;;;35.10;12.90;;;;;;;14.76;100.00;98581.05;108095;1257;72601;-66
2023/01/18 13:03:42;;;;;;;34.50;11.50;;;;;;;14.90;100.00;98583.48;108103;1256;72349;-63
2023/01/18 13:06:09;;;;;;;27.60;10.00;;;;;;;15.19;100.00;98583.48;107982;1257;74937;-65
2023/01/18 13:09:17;;;;;;;24.90;9.30;;;;;;;15.51;100.00;98582.97;107942;1255;63028;-65
2023/01/18 13:11:44;;;;;;;37.60;13.20;;;;;;;15.52;100.00;98587.49;107851;1256;61389;-64
2023/01/18 13:14:39;;;;;;;34.90;12.70;;;;;;;15.71;100.00;98582.06;108143;1257;72946;-66
2023/01/18 13:17:17;;;;;;;28.30;11.00;;;;;;;15.77;100.00;98571.09;107941;1256;72534;-64
2023/01/18 13:19:47;;;;;;;33.60;12.30;;;;;;;15.77;100.00;98569.34;107742;1257;73867;-64
2023/01/18 13:22:30;;;;;;;36.00;8.90;;;;;;;16.06;100.00;98565.34;107964;1254;63017;-64
2023/01/18 13:25:07;;;;;;;33.00;11.40;;;;;;;16.04;100.00;98567.27;107789;1257;59905;-65
2023/01/18 13:27:36;;;;;;;30.50;10.30;;;;;;;16.19;100.00;98569.90;107948;1257;72192;-65
2023/01/18 13:30:18;;;;;;;30.40;12.20;;;;;;;16.28;100.00;98568.09;108016;1254;72650;-63
2023/01/18 13:32:47;;;;;;;28.50;11.90;;;;;;;16.46;100.00;98566.38;107976;1257;75039;-63
2023/01/18 13:35:38;;;;;;;29.40;11.70;;;;;;;16.76;100.00;98562.16;107930;1260;61833;-63
2023/01/18 13:38:11;;;;;;;39.60;11.80;;;;;;;16.78;100.00;98569.23;107975;1254;59390;-63
2023/01/18 13:40:42;;;;;;;32.80;11.30;;;;;;;16.58;100.00;98571.54;107921;1257;75200;-64
2023/01/18 13:43:27;;;;;;;;;;;;;;;16.39;100.00;98577.05;107832;1257;72360;-63
2023/01/18 13:46:04;;;;;;;35.90;10.80;;;;;;;16.89;100.00;98577.55;108059;1256;74708;-65
2023/01/18 13:48:40;;;;;;;34.30;11.80;;;;;;;17.21;100.00;98578.41;107905;1255;64303;-63
2023/01/18 13:51:08;;;;;;;30.10;10.80;;;;;;;17.25;100.00;98579.69;108034;1255;61333;-64
2023/01/18 13:53:55;;;;;;;39.40;11.70;;;;;;;17.72;100.00;98586.15;107956;1256;74938;-64
2023/01/18 13:56:26;;;;;;;34.30;11.60;;;;;;;17.56;95.71;98588.94;107990;1257;71482;-64
2023/01/18 20:01:44;;;;;;;41.30;11.90;;;;;;;12.15;100.00;98945.20;105584;1283;612917;-63
2023/01/18 20:04:12;;;;;;;36.80;10.60;;;;;;;12.68;100.00;98953.54;107097;1263;122228;-63
2023/01/18 20:06:42;;;;;;;48.10;11.90;;;;;;;13.21;100.00;98961.35;107256;1263;62289;-62
2023/01/18 20:09:13;;;;;;;47.80;12.70;;;;;;;13.49;100.00;98964.23;107283;1264;74200;-62
2023/01/18 20:11:57;;;;;;;44.30;11.90;;;;;;;13.71;100.00;98967.33;107314;1268;71072;-63
2023/01/18 20:14:24;;;;;;;56.20;13.60;;;;;;;13.87;100.00;98976.16;107449;1260;74994;-63
2023/01/18 20:17:06;;;;;;;39.60;12.20;;;;;;;14.23;100.00;98979.27;107417;1260;62303;-62
2023/01/18 20:19:33;;;;;;;41.80;10.80;;;;;;;14.47;100.00;98987.99;107489;1260;62676;-64
2023/01/18 20:22:00;;;;;;;39.70;11.00;;;;;;;14.51;100.00;98998.54;107425;1261;73987;-63
2023/01/18 20:24:26;;;;;;;41.50;11.50;;;;;;;14.39;100.00;99003.23;107432;1260;72512;-63
2023/01/18 20:26:53;;;;;;;34.90;9.80;;;;;;;14.44;100.00;99006.77;107459;1260;74580;-62
2023/01/18 20:29:25;;;;;;;45.00;11.60;;;;;;;14.25;100.00;99018.54;107449;1263;61682;-63
2023/01/18 20:31:52;;;;;;;40.80;9.70;;;;;;;14.20;100.00;99021.14;107571;1259;61445;-61
2023/01/18 20:34:23;;;;;;;44.50;10.10;;;;;;;13.86;100.00;99018.58;107593;1260;74768;-62
2023/01/18 20:36:51;;;;;;;36.70;10.30;;;;;;;13.99;100.00;99024.89;107557;1260;72206;-65
2023/01/18 20:39:18;;;;;;;40.70;10.90;;;;;;;14.56;100.00;99023.95;107569;1265;72800;-61
2023/01/18 20:41:45;;;;;;;44.30;10.90;;;;;;;14.36;100.00;99022.55;107600;1259;63059;-61
2023/01/18 20:44:12;;;;;;;44.20;10.00;;;;;;;14.57;100.00;99030.05;107499;1260;60985;-63
2023/01/18 20:46:39;;;;;;;50.50;12.30;;;;;;;13.99;100.00;99029.87;107417;1259;74937;-62
2023/01/18 20:49:05;;;;;;;32.80;10.40;;;;;;;14.10;100.00;99039.52;107445;1260;70516;-64
2023/01/18 20:51:32;;;;;;;50.00;11.80;;;;;;;13.93;100.00;99038.89;107525;1260;74724;-64
2023/01/18 20:54:01;;;;;;;38.80;9.90;;;;;;;13.61;100.00;99047.01;107417;1262;62422;-63
2023/01/18 20:56:29;;;;;;;36.70;9.50;;;;;;;13.38;100.00;99052.27;107401;1261;60920;-64
2023/01/18 20:58:56;;;;;;;35.10;10.30;;;;;;;13.60;100.00;99061.05;107624;1259;74845;-65
2023/01/18 21:01:30;;;;;;;53.00;11.60;;;;;;;13.60;100.00;99061.05;107577;1259;72707;-64
2023/01/18 21:03:57;;;;;;;38.90;9.50;;;;;;;13.73;100.00;99059.46;107566;1259;74658;-63
2023/01/18 21:06:24;;;;;;;45.50;10.50;;;;;;;13.87;100.00;99057.11;107538;1259;61451;-64
2023/01/18 21:08:52;;;;;;;39.00;9.80;;;;;;;14.16;100.00;99062.59;107561;1259;59420;-63
2023/01/18 21:11:21;;;;;;;35.30;10.50;;;;;;;13.97;100.00;99059.98;107600;1259;72998;-63
2023/01/18 21:13:48;;;;;;;44.60;11.80;;;;;;;14.33;100.00;99060.53;107562;1259;70018;-63
2023/01/18 21:16:15;;;;;;;47.60;11.50;;;;;;;14.38;100.00;99061.95;107527;1263;72637;-64
2023/01/18 21:18:42;;;;;;;39.00;10.70;;;;;;;14.10;100.00;99060.86;107554;1260;63949;-65
2023/01/18 21:21:09;;;;;;;35.60;10.70;;;;;;;14.01;100.00;99061.27;107606;1260;62332;-65
2023/01/18 21:23:39;;;;;;;42.00;10.90;;;;;;;14.22;100.00;99056.66;107546;1260;75072;-64
2023/01/18 21:26:10;;;;;;;37.30;10.90;;;;;;;14.14;100.00;99060.23;107579;1259;70205;-64
2023/01/18 21:28:37;;;;;;;37.10;10.20;;;;;;;14.14;100.00;99057.20;107646;1259;72780;-63
2023/01/18 21:31:04;;;;;;;35.50;10.20;;;;;;;14.25;100.00;99059.33;107604;1259;63850;-63
2023/01/18 21:33:31;;;;;;;35.90;10.50;;;;;;;14.27;100.00;99071.32;107711;1259;60411;-65
2023/01/18 21:36:07;;;;;;;38.80;10.10;;;;;;;13.87;100.00;99083.09;107668;1259;75556;-65
2023/01/18 21:38:34;;;;;;;40.30;12.10;;;;;;;13.73;100.00;99083.10;107503;1259;72736;-64
2023/01/18 21:45:53;;;;;;;39.70;10.70;;;;;;;13.88;100.00;99092.38;107753;1259;74395;-63
2023/01/18 21:46:34;;;;;;;42.70;12.40;;;;;;;13.84;100.00;99095.47;107586;1258;61141;-63
2023/01/18 21:49:05;;;;;;;41.10;12.20;;;;;;;13.87;100.00;99100.38;107466;1264;74715;-64
2023/01/18 21:54:18;;;;;;;46.30;12.60;;;;;;;13.36;100.00;99108.45;107557;1259;74681;-65
2023/01/18 21:56:46;;;;;;;40.80;12.50;;;;;;;12.61;100.00;99115.96;107562;1260;64146;-64
2023/01/18 21:59:13;;;;;;;53.20;12.20;;;;;;;12.83;100.00;99117.10;107527;1259;60756;-62
2023/01/18 22:01:43;;;;;;;49.70;18.10;;;;;;;12.94;100.00;99116.78;107520;1259;75341;-64
2023/01/18 22:06:58;;;;;;;34.60;11.80;;;;;;;12.70;100.00;99116.62;107542;1259;74675;-62
2023/01/18 22:09:26;;;;;;;40.80;12.00;;;;;;;12.81;100.00;99121.98;107557;1260;61964;-64
2023/01/18 22:11:55;;;;;;;47.20;12.70;;;;;;;12.88;100.00;99126.98;107497;1259;62912;-63
2023/01/18 22:14:22;;;;;;;38.60;11.90;;;;;;;12.81;100.00;99132.02;107549;1259;73749;-63
2023/01/18 22:16:49;;;;;;;38.80;12.80;;;;;;;12.50;100.00;99142.69;107540;1260;72634;-63
2023/01/18 22:19:17;;;;;;;36.90;14.80;;;;;;;12.24;100.00;99145.15;107604;1260;73742;-64
2023/01/18 22:21:44;;;;;;;53.20;19.60;;;;;;;12.18;100.00;99147.80;107478;1260;60472;-65
2023/01/18 22:24:11;;;;;;;44.00;14.70;;;;;;;12.15;100.00;99146.38;107507;1259;61974;-65
2023/01/18 22:26:39;;;;;;;49.10;13.80;;;;;;;12.51;100.00;99142.84;107555;1260;75244;-63
2023/01/18 22:29:06;;;;;;;41.20;11.90;;;;;;;12.73;100.00;99141.46;107574;1259;69517;-64
2023/01/18 22:31:33;;;;;;;33.20;11.80;;;;;;;12.79;100.00;99148.50;107564;1259;74711;-65
2023/01/18 22:34:00;;;;;;;52.90;13.20;;;;;;;12.62;100.00;99158.70;107498;1259;64185;-64
2023/01/18 22:36:29;;;;;;;38.00;10.70;;;;;;;12.43;100.00;99165.14;107555;1259;62035;-63
2023/01/18 22:38:56;;;;;;;39.70;13.60;;;;;;;12.12;100.00;99170.35;107542;1260;73642;-63
2023/01/18 22:41:25;;;;;;;40.50;12.70;;;;;;;12.26;100.00;99170.92;107503;1264;68660;-64
2023/01/18 22:43:52;;;;;;;41.60;12.30;;;;;;;12.08;100.00;99170.91;107622;1259;74550;-64
2023/01/18 22:46:19;;;;;;;44.00;13.10;;;;;;;12.01;100.00;99178.18;107510;1260;64276;-64
2023/01/18 22:48:46;;;;;;;33.20;12.10;;;;;;;11.95;100.00;99185.70;107620;1259;62294;-64
2023/01/18 22:51:15;;;;;;;35.10;11.20;;;;;;;11.98;100.00;99196.23;107725;1261;73025;-64
2023/01/18 22:53:42;;;;;;;32.00;12.80;;;;;;;12.07;100.00;99203.67;107611;1259;70134;-66
2023/01/18 22:56:12;;;;;;;36.20;12.20;;;;;;;11.93;100.00;99210.09;107592;1260;73416;-64
2023/01/18 22:58:39;;;;;;;39.90;13.50;;;;;;;12.01;100.00;99213.17;107586;1259;62854;-64
2023/01/18 23:01:20;;;;;;;48.70;16.20;;;;;;;11.71;100.00;99217.85;107551;1259;61109;-64